Time;durP1;ratioP1;P1;durP2;ratioP2;P2;SDS_P1;SDS_P2;PMS_P1;PMS_P2;Temp;Humidity;BMP_temperature;BMP_pressure;BME280_temperature;BME280_humidity;BME280_pressure;Samples;Min_cycle;Max_cycle;Signal;HPM_P1;HPM_P2
2022/10/26 00:00:33;;;;;;;17.77;5.80;;;;;;;18.86;54.48;97278.94;4970702;28;20188;-77
2022/10/26 00:02:59;;;;;;;15.73;4.63;;;;;;;18.84;54.38;97261.66;4970306;28;20190;-77
2022/10/26 00:05:26;;;;;;;8.53;4.40;;;;;;;18.81;54.80;97277.63;4970562;28;20188;-77
2022/10/26 00:07:53;;;;;;;8.97;4.30;;;;;;;18.71;55.00;97280.13;4971422;28;20190;-77
2022/10/26 00:10:20;;;;;;;9.37;4.53;;;;;;;18.63;54.82;97282.44;4969018;28;20202;-77
2022/10/26 00:12:49;;;;;;;12.00;4.93;;;;;;;18.47;55.19;97285.38;4969840;28;20645;-77
2022/10/26 00:15:18;;;;;;;12.77;5.33;;;;;;;18.35;55.44;97281.00;4971224;28;20182;-79
2022/10/26 00:17:46;;;;;;;11.97;5.47;;;;;;;18.18;55.60;97273.50;4970210;28;20238;-79
2022/10/26 00:20:14;;;;;;;14.67;5.80;;;;;;;18.03;56.07;97279.03;4953938;28;20194;-78
2022/10/26 00:22:41;;;;;;;13.33;5.50;;;;;;;18.01;56.16;97275.69;4969971;28;20195;-77
2022/10/26 00:25:08;;;;;;;15.03;5.57;;;;;;;17.87;57.02;97282.72;4971479;28;20189;-79
2022/10/26 00:27:35;;;;;;;11.90;4.80;;;;;;;17.76;56.48;97269.53;4970091;28;20200;-75
2022/10/26 00:30:06;;;;;;;12.10;5.00;;;;;;;17.84;56.86;97264.63;4969677;28;20191;-78
2022/10/26 00:32:33;;;;;;;8.07;4.47;;;;;;;17.86;56.99;97275.84;4970942;28;20198;-79
2022/10/26 00:35:00;;;;;;;11.30;4.43;;;;;;;17.78;56.96;97272.88;4970221;28;20282;-78
2022/10/26 00:37:47;;;;;;;11.77;4.60;;;;;;;17.87;56.67;97282.72;4970860;28;20295;-79
2022/10/26 00:40:14;;;;;;;9.50;4.40;;;;;;;17.72;57.08;97273.31;4969664;28;20729;-79
2022/10/26 00:42:41;;;;;;;12.67;5.30;;;;;;;17.72;57.02;97289.03;4970917;28;20186;-78
2022/10/26 00:45:14;;;;;;;12.90;5.43;;;;;;;17.63;56.91;97275.75;4968887;28;20181;-76
2022/10/26 00:47:56;;;;;;;12.77;4.60;;;;;;;17.56;56.99;97277.97;4970377;28;20862;-76
2022/10/26 00:50:34;;;;;;;9.83;5.10;;;;;;;17.51;57.36;97280.09;4970476;28;20199;-76
2022/10/26 00:53:03;;;;;;;12.17;4.57;;;;;;;17.46;57.23;97271.66;4968379;28;20198;-76
2022/10/26 00:55:37;;;;;;;11.57;4.60;;;;;;;17.51;57.35;97268.78;4970565;28;20692;-76
2022/10/26 00:58:07;;;;;;;11.27;5.13;;;;;;;17.48;57.60;97274.16;4969566;28;20232;-77
2022/10/26 01:00:34;;;;;;;11.23;5.07;;;;;;;17.44;57.69;97265.69;4968694;28;20219;-76
2022/10/26 01:03:05;;;;;;;11.70;4.50;;;;;;;17.45;58.05;97261.31;4970236;28;20318;-78
2022/10/26 01:05:34;;;;;;;9.20;4.87;;;;;;;17.41;58.16;97257.22;4969388;28;20192;-78
2022/10/26 01:08:02;;;;;;;9.37;4.43;;;;;;;17.44;58.14;97246.53;4970370;28;20257;-77
2022/10/26 01:10:29;;;;;;;10.73;4.40;;;;;;;17.53;57.83;97246.78;4969218;28;20187;-77
2022/10/26 01:12:57;;;;;;;12.47;4.87;;;;;;;17.66;57.77;97252.81;4970705;28;20188;-78
2022/10/26 01:15:52;;;;;;;14.70;5.60;;;;;;;17.95;56.93;97252.53;4969368;28;20201;-77
2022/10/26 01:18:38;;;;;;;9.63;4.00;;;;;;;18.20;56.30;97247.16;4968991;28;20293;-77
2022/10/26 01:21:26;;;;;;;10.47;4.77;;;;;;;18.35;55.72;97260.03;4952882;28;20198;-77
2022/10/26 01:24:27;;;;;;;11.53;4.23;;;;;;;18.65;55.17;97256.94;4951876;28;20197;-76
2022/10/26 01:27:26;;;;;;;10.00;4.60;;;;;;;18.84;54.51;97259.88;4969324;28;20189;-75
2022/10/26 01:30:47;;;;;;;10.47;4.37;;;;;;;18.92;54.64;97257.50;4969839;28;20233;-76
2022/10/26 01:33:20;;;;;;;9.37;3.90;;;;;;;18.86;54.50;97255.34;4909729;29;20687;-76
2022/10/26 01:36:03;;;;;;;15.77;4.50;;;;;;;18.77;55.13;97253.41;4942795;28;20581;-76
2022/10/26 01:38:33;;;;;;;11.87;4.37;;;;;;;18.76;54.67;97258.75;4969857;28;20191;-76
2022/10/26 01:41:15;;;;;;;7.80;3.90;;;;;;;18.70;54.98;97262.69;4968715;28;20190;-76
2022/10/26 01:43:48;;;;;;;13.30;4.10;;;;;;;18.72;54.93;97260.78;4969470;28;20196;-75
2022/10/26 01:46:17;;;;;;;9.67;3.80;;;;;;;18.70;54.85;97262.69;4969292;28;20193;-76
2022/10/26 01:48:53;;;;;;;9.17;4.23;;;;;;;18.70;54.61;97260.06;4968616;28;20666;-77
2022/10/26 01:51:22;;;;;;;5.23;3.87;;;;;;;18.76;54.63;97246.47;4969552;28;20200;-76
2022/10/26 01:53:49;;;;;;;9.00;3.93;;;;;;;18.78;54.57;97249.00;4968330;28;20187;-77
2022/10/26 01:56:26;;;;;;;13.43;3.90;;;;;;;18.55;53.85;97217.44;4969395;28;20194;-77
2022/10/26 01:59:10;;;;;;;10.63;3.40;;;;;;;18.75;53.87;97259.72;4968632;28;20292;-77
2022/10/26 02:01:52;;;;;;;10.13;3.60;;;;;;;18.76;53.73;97256.97;4968645;28;20195;-78
2022/10/26 02:04:33;;;;;;;11.50;3.20;;;;;;;18.75;53.33;97265.81;4969196;28;20563;-76
2022/10/26 02:07:20;;;;;;;6.77;3.37;;;;;;;18.77;53.58;97256.03;4968308;28;20202;-79
2022/10/26 02:10:09;;;;;;;3.63;2.50;;;;;;;18.79;52.75;97267.25;4938931;28;20202;-79
2022/10/26 02:12:49;;;;;;;4.67;3.03;;;;;;;18.80;52.59;97268.91;4969037;28;20203;-79
2022/10/26 02:15:28;;;;;;;6.97;3.03;;;;;;;18.76;52.20;97272.72;4967885;28;20280;-77
2022/10/26 02:18:03;;;;;;;8.00;2.40;;;;;;;18.79;51.95;97272.50;4951654;28;20731;-80
2022/10/26 02:20:42;;;;;;;5.57;2.30;;;;;;;18.80;52.10;97273.31;4968254;28;20226;-79
2022/10/26 02:23:11;;;;;;;5.60;2.30;;;;;;;18.85;51.76;97265.97;4968609;28;20189;-77
2022/10/26 02:25:49;;;;;;;8.00;2.90;;;;;;;18.79;51.56;97262.00;4968927;28;20196;-79
2022/10/26 02:28:26;;;;;;;9.33;4.00;;;;;;;18.71;51.97;97256.50;4967627;28;20198;-78
2022/10/26 02:30:57;;;;;;;4.47;2.40;;;;;;;18.84;51.52;97265.13;4951636;28;20194;-76
2022/10/26 02:33:27;;;;;;;5.70;2.43;;;;;;;18.84;51.14;97269.50;4968133;28;20187;-76
2022/10/26 02:35:58;;;;;;;5.13;2.10;;;;;;;18.88;50.60;97286.72;4968475;28;20198;-77
2022/10/26 02:38:28;;;;;;;5.43;2.40;;;;;;;18.87;50.34;97266.69;4951047;28;20217;-76
2022/10/26 02:40:55;;;;;;;5.33;1.90;;;;;;;18.92;50.35;97275.88;4966373;28;20229;-76
2022/10/26 02:43:25;;;;;;;4.43;1.83;;;;;;;18.92;50.06;97286.38;4967461;28;20194;-76
2022/10/26 02:46:15;;;;;;;8.63;2.60;;;;;;;18.62;51.77;97289.50;4967556;28;20266;-76
2022/10/26 02:48:42;;;;;;;7.80;2.50;;;;;;;18.54;52.04;97299.72;4951256;28;20210;-77
2022/10/26 02:51:19;;;;;;;7.67;3.33;;;;;;;18.24;53.52;97311.53;4968385;28;20576;-76
2022/10/26 02:53:56;;;;;;;9.10;3.47;;;;;;;18.03;54.28;97310.47;4967649;28;20570;-75
2022/10/26 02:56:33;;;;;;;10.47;3.37;;;;;;;17.88;54.17;97305.38;4968524;28;20201;-76
2022/10/26 02:59:04;;;;;;;11.03;4.20;;;;;;;17.69;55.11;97310.22;4967379;28;20703;-75
2022/10/26 03:01:33;;;;;;;12.77;3.97;;;;;;;17.60;55.26;97315.25;4968256;28;20205;-75
2022/10/26 03:04:00;;;;;;;7.53;3.60;;;;;;;17.52;55.18;97304.47;4966577;28;20597;-75
2022/10/26 03:06:27;;;;;;;3.63;2.53;;;;;;;17.75;53.29;97315.03;4967513;28;20205;-75
2022/10/26 03:08:54;;;;;;;3.17;1.93;;;;;;;18.07;51.07;97312.78;4968588;28;20198;-75
2022/10/26 03:11:20;;;;;;;2.20;1.23;;;;;;;18.28;50.25;97308.59;4967561;28;20235;-76
2022/10/26 03:13:47;;;;;;;2.00;1.50;;;;;;;18.41;50.21;97311.19;4967202;28;20611;-76
2022/10/26 03:16:14;;;;;;;3.47;1.43;;;;;;;18.43;49.84;97304.91;4969150;28;20294;-75
2022/10/26 03:18:41;;;;;;;2.03;1.53;;;;;;;18.43;50.09;97318.03;4971939;28;20309;-77
2022/10/26 03:21:09;;;;;;;2.30;1.33;;;;;;;18.37;49.70;97312.34;4971527;28;20189;-77
2022/10/26 03:23:36;;;;;;;3.97;1.27;;;;;;;18.35;49.50;97309.84;4971793;28;20189;-78
2022/10/26 03:26:02;;;;;;;3.50;1.40;;;;;;;18.40;49.68;97325.25;4970647;28;20552;-78
2022/10/26 03:28:30;;;;;;;1.83;1.33;;;;;;;18.33;49.46;97316.13;4971202;28;20730;-76
2022/10/26 03:30:57;;;;;;;3.87;1.53;;;;;;;18.31;49.63;97315.41;4972155;28;20183;-79
2022/10/26 03:33:24;;;;;;;1.73;1.20;;;;;;;18.28;49.76;97319.09;4970801;28;20230;-77
2022/10/26 03:35:56;;;;;;;1.90;1.30;;;;;;;18.22;49.96;97308.19;4971967;28;20253;-77
2022/10/26 03:38:23;;;;;;;2.97;1.40;;;;;;;18.18;50.14;97317.22;4971151;28;20232;-77
2022/10/26 03:40:50;;;;;;;2.00;1.33;;;;;;;18.16;50.14;97313.88;4971691;28;20202;-77
2022/10/26 03:43:18;;;;;;;2.27;1.43;;;;;;;18.09;50.75;97317.91;4971597;28;20191;-78
2022/10/26 03:45:44;;;;;;;3.43;1.40;;;;;;;18.02;50.81;97321.91;4970856;28;20191;-78
2022/10/26 03:48:12;;;;;;;3.20;1.30;;;;;;;17.97;51.10;97324.84;4970312;28;20586;-78
2022/10/26 03:50:39;;;;;;;1.80;1.20;;;;;;;17.80;51.20;97320.78;4969093;28;20194;-76
2022/10/26 03:53:06;;;;;;;3.50;1.30;;;;;;;17.85;51.58;97329.16;4971676;28;20213;-75
2022/10/26 03:55:33;;;;;;;2.53;1.13;;;;;;;17.81;51.97;97330.31;4970788;28;20623;-75
2022/10/26 03:58:00;;;;;;;2.80;1.70;;;;;;;17.73;51.92;97310.84;4971022;28;20726;-76
2022/10/26 04:00:27;;;;;;;2.60;1.43;;;;;;;17.76;52.34;97329.78;4971084;28;20196;-76
2022/10/26 04:02:58;;;;;;;2.87;1.73;;;;;;;17.69;52.40;97328.56;4970767;28;20595;-76
2022/10/26 04:05:27;;;;;;;3.00;1.40;;;;;;;17.68;52.74;97326.88;4971117;28;20194;-75
2022/10/26 04:07:59;;;;;;;4.40;1.40;;;;;;;17.79;52.35;97329.59;4952914;28;20197;-76
2022/10/26 04:10:26;;;;;;;3.43;1.80;;;;;;;17.80;52.81;97328.63;4971212;28;20190;-78
2022/10/26 04:12:54;;;;;;;2.80;1.73;;;;;;;17.83;52.31;97333.69;4970240;28;20611;-79
2022/10/26 04:15:21;;;;;;;2.80;1.90;;;;;;;17.77;53.08;97336.72;4970315;28;20209;-78
2022/10/26 04:17:55;;;;;;;2.87;1.70;;;;;;;17.81;52.72;97321.63;4970289;28;20232;-75
2022/10/26 04:20:22;;;;;;;2.70;1.50;;;;;;;17.83;52.58;97323.19;4969799;28;20200;-75
2022/10/26 04:23:03;;;;;;;1.80;1.40;;;;;;;17.85;52.77;97328.31;4971075;28;20196;-75
2022/10/26 04:25:31;;;;;;;7.90;2.33;;;;;;;17.76;52.86;97328.97;4969906;28;20190;-76
2022/10/26 04:28:01;;;;;;;3.00;1.60;;;;;;;17.72;52.94;97330.16;4970769;28;20183;-76
2022/10/26 04:30:28;;;;;;;6.03;1.67;;;;;;;17.73;53.39;97324.78;4969591;28;20200;-76
2022/10/26 04:32:55;;;;;;;4.03;2.00;;;;;;;17.59;53.02;97309.19;4968943;28;20198;-74
2022/10/26 04:35:22;;;;;;;3.07;1.90;;;;;;;17.75;53.08;97343.00;4968875;28;20202;-75
2022/10/26 04:37:49;;;;;;;4.47;2.20;;;;;;;17.73;53.09;97337.88;4952153;28;20611;-74
2022/10/26 04:40:17;;;;;;;2.43;1.60;;;;;;;17.67;53.13;97340.09;4970554;28;20202;-76
2022/10/26 04:42:46;;;;;;;7.50;3.83;;;;;;;17.66;53.29;97336.63;4967821;28;20700;-75
2022/10/26 04:45:15;;;;;;;6.90;1.80;;;;;;;17.63;53.54;97339.47;4970025;28;20194;-76
2022/10/26 04:47:42;;;;;;;6.53;1.80;;;;;;;17.69;53.38;97344.28;4969530;28;20203;-76
2022/10/26 04:50:11;;;;;;;2.63;1.70;;;;;;;17.68;53.26;97350.44;4969811;28;20232;-76
2022/10/26 04:52:38;;;;;;;2.37;1.60;;;;;;;17.65;53.37;97345.44;4970224;28;20280;-75
2022/10/26 04:55:06;;;;;;;3.20;1.77;;;;;;;17.60;53.17;97342.28;4969249;28;20696;-75
2022/10/26 04:57:33;;;;;;;3.57;1.77;;;;;;;17.62;53.61;97366.59;4968983;28;20698;-75
2022/10/26 05:00:03;;;;;;;3.97;2.07;;;;;;;17.62;53.61;97368.41;4969043;28;20240;-77
2022/10/26 05:02:30;;;;;;;2.93;1.70;;;;;;;17.66;53.32;97364.63;4970677;28;20244;-75
2022/10/26 05:04:57;;;;;;;5.97;2.00;;;;;;;17.59;53.55;97379.91;4969569;28;20261;-74
2022/10/26 05:07:23;;;;;;;6.23;2.30;;;;;;;17.55;53.70;97374.97;4969954;28;20750;-74
2022/10/26 05:09:50;;;;;;;4.33;1.90;;;;;;;17.46;53.90;97386.88;4970344;28;20258;-76
2022/10/26 05:12:17;;;;;;;4.10;2.00;;;;;;;17.33;54.19;97372.94;4969379;28;20194;-75
2022/10/26 05:14:44;;;;;;;2.40;2.13;;;;;;;17.42;54.50;97380.19;4970268;28;20197;-75
2022/10/26 05:17:11;;;;;;;4.03;1.97;;;;;;;17.51;54.07;97389.22;4968701;28;20837;-75
2022/10/26 05:19:39;;;;;;;2.93;1.90;;;;;;;17.60;53.88;97384.19;4970176;28;20244;-75
2022/10/26 05:22:05;;;;;;;2.03;1.60;;;;;;;17.61;54.02;97393.75;4969245;28;20189;-75
2022/10/26 05:24:33;;;;;;;2.47;1.60;;;;;;;17.68;53.77;97391.56;4969666;28;20261;-75
2022/10/26 05:27:00;;;;;;;2.23;1.53;;;;;;;17.75;53.24;97393.63;4984244;28;20196;-75
2022/10/26 05:29:26;;;;;;;3.03;2.03;;;;;;;17.81;53.25;97395.84;4968824;28;20182;-74
2022/10/26 05:31:53;;;;;;;4.90;1.80;;;;;;;17.93;53.22;97407.25;4969673;28;20743;-76
2022/10/26 05:34:20;;;;;;;4.17;1.90;;;;;;;18.02;52.97;97397.91;4968647;28;20194;-74
2022/10/26 05:36:47;;;;;;;3.60;2.00;;;;;;;18.12;52.98;97396.31;4969914;28;20190;-76
2022/10/26 05:39:14;;;;;;;4.80;1.90;;;;;;;18.20;52.39;97401.84;4966723;28;20232;-76
2022/10/26 05:41:41;;;;;;;4.33;2.03;;;;;;;18.20;51.67;97397.44;4968265;28;20200;-75
2022/10/26 05:44:07;;;;;;;4.77;2.00;;;;;;;18.50;51.23;97407.59;4968749;28;20690;-76
2022/10/26 05:46:34;;;;;;;3.33;1.70;;;;;;;18.52;51.53;97418.81;4968944;28;20195;-76
2022/10/26 05:49:01;;;;;;;2.60;2.27;;;;;;;18.59;51.13;97407.75;4969251;28;20190;-76
2022/10/26 05:51:28;;;;;;;7.07;2.50;;;;;;;18.53;51.25;97408.22;4968155;28;20653;-76
2022/10/26 05:53:55;;;;;;;2.80;1.97;;;;;;;18.73;50.49;97411.19;4967991;28;20191;-74
2022/10/26 05:56:37;;;;;;;3.83;2.10;;;;;;;18.80;50.22;97418.50;4967950;28;20193;-77
2022/10/26 05:59:10;;;;;;;7.03;1.80;;;;;;;18.85;50.37;97426.88;4968580;28;20258;-75
2022/10/26 06:01:50;;;;;;;8.00;3.70;;;;;;;18.92;50.47;97427.28;4967182;28;20585;-78
2022/10/26 06:04:26;;;;;;;3.57;2.57;;;;;;;18.88;49.61;97415.31;4968078;28;20237;-76
2022/10/26 06:06:54;;;;;;;5.00;2.30;;;;;;;19.00;48.99;97431.00;4969118;28;20639;-77
2022/10/26 06:09:21;;;;;;;2.83;1.80;;;;;;;19.13;49.02;97439.66;4967531;28;20671;-77
2022/10/26 06:11:49;;;;;;;11.63;4.40;;;;;;;19.37;48.47;97437.88;4968341;28;20203;-76
2022/10/26 06:14:21;;;;;;;4.60;2.00;;;;;;;19.47;47.99;97428.34;4967879;28;20219;-76
2022/10/26 06:17:07;;;;;;;5.90;1.60;;;;;;;19.50;48.21;97440.44;4963517;28;20229;-75
2022/10/26 06:20:02;;;;;;;13.73;3.97;;;;;;;19.59;47.66;97431.88;4949166;28;20215;-77
2022/10/26 06:22:42;;;;;;;2.47;1.30;;;;;;;19.69;47.42;97442.50;4948112;28;20201;-76
2022/10/26 06:25:37;;;;;;;5.07;1.93;;;;;;;19.94;46.92;97452.84;4963376;28;20266;-77
2022/10/26 06:28:34;;;;;;;4.20;1.50;;;;;;;19.97;46.40;97450.00;4948812;28;20189;-77
2022/10/26 06:31:01;;;;;;;4.47;1.63;;;;;;;20.00;46.31;97449.72;4948100;28;20195;-76
2022/10/26 06:33:28;;;;;;;4.00;1.67;;;;;;;20.13;46.13;97442.59;4947785;29;20648;-77
2022/10/26 06:36:26;;;;;;;2.57;1.63;;;;;;;20.19;45.92;97457.88;4963009;28;20197;-76
2022/10/26 06:39:09;;;;;;;4.93;2.23;;;;;;;20.17;45.92;97452.72;4946750;29;20827;-76
2022/10/26 06:41:36;;;;;;;3.20;1.67;;;;;;;20.12;45.89;97451.41;4949154;28;20243;-75
2022/10/26 06:44:04;;;;;;;3.17;2.07;;;;;;;20.13;46.30;97456.53;4947999;28;20292;-75
2022/10/26 06:46:47;;;;;;;3.20;2.00;;;;;;;20.24;45.66;97461.00;4963167;28;20195;-76
2022/10/26 06:49:39;;;;;;;4.33;1.90;;;;;;;20.36;45.84;97469.75;4948239;28;20194;-77
2022/10/26 06:52:06;;;;;;;3.30;1.10;;;;;;;20.38;45.77;97475.75;4946419;28;20718;-76
2022/10/26 06:54:51;;;;;;;2.27;1.80;;;;;;;20.44;45.78;97470.84;4963501;28;20244;-75
2022/10/26 06:57:20;;;;;;;3.23;1.90;;;;;;;20.41;45.70;97478.13;4947590;28;20204;-75
2022/10/26 06:59:53;;;;;;;4.03;1.50;;;;;;;20.35;45.57;97489.97;4948136;28;20574;-75
2022/10/26 07:02:20;;;;;;;2.40;1.47;;;;;;;20.43;45.48;97476.19;4963183;28;20228;-75
2022/10/26 07:04:47;;;;;;;5.23;1.97;;;;;;;20.57;45.21;97489.97;4946400;29;20217;-76
2022/10/26 07:07:20;;;;;;;2.13;1.40;;;;;;;20.41;45.72;97486.00;4948507;29;20189;-76
2022/10/26 07:09:48;;;;;;;2.13;1.73;;;;;;;20.40;45.54;97489.63;4961619;28;20210;-75
2022/10/26 07:12:15;;;;;;;3.17;1.60;;;;;;;20.25;45.59;97468.81;4962942;28;20296;-77
2022/10/26 07:14:42;;;;;;;3.00;1.63;;;;;;;20.46;45.25;97482.09;4947036;28;20556;-76
2022/10/26 07:17:09;;;;;;;2.60;1.40;;;;;;;20.46;45.19;97471.56;4962652;28;20239;-78
2022/10/26 07:19:36;;;;;;;4.30;1.57;;;;;;;20.59;44.76;97481.94;4962309;28;20735;-78
2022/10/26 07:22:03;;;;;;;3.53;1.90;;;;;;;20.54;45.00;97463.91;4947343;28;20190;-77
2022/10/26 07:24:30;;;;;;;6.43;1.80;;;;;;;20.60;44.99;97473.94;4948274;28;20219;-77
2022/10/26 07:26:58;;;;;;;3.47;1.60;;;;;;;20.72;44.87;97483.50;4961651;28;20706;-76
2022/10/26 07:29:26;;;;;;;2.97;1.63;;;;;;;20.68;45.03;97483.84;4962955;28;20200;-76
2022/10/26 07:31:53;;;;;;;2.23;1.47;;;;;;;20.67;44.83;97475.09;4947352;28;20212;-77
2022/10/26 07:34:25;;;;;;;3.37;1.87;;;;;;;20.67;44.93;97476.94;4947997;28;20199;-77
2022/10/26 07:36:52;;;;;;;5.03;2.70;;;;;;;20.87;44.92;97482.28;4962565;28;20581;-77
2022/10/26 07:39:18;;;;;;;5.03;2.03;;;;;;;20.84;44.54;97482.50;4947089;29;20224;-76
2022/10/26 07:41:46;;;;;;;3.90;1.43;;;;;;;20.60;44.74;97463.41;4947916;28;20186;-75
2022/10/26 07:44:13;;;;;;;3.03;1.43;;;;;;;20.74;44.68;97478.94;4947026;28;20681;-75
2022/10/26 07:46:40;;;;;;;4.73;2.00;;;;;;;20.76;44.64;97478.81;4946585;29;20237;-75
2022/10/26 07:49:08;;;;;;;3.03;1.60;;;;;;;20.73;44.20;97466.72;4946947;28;20220;-76
2022/10/26 07:51:35;;;;;;;3.23;1.53;;;;;;;20.91;43.97;97467.06;4962643;28;20189;-78
2022/10/26 07:54:02;;;;;;;4.27;1.93;;;;;;;21.01;43.99;97473.25;4947199;29;20283;-77
2022/10/26 07:56:29;;;;;;;3.00;1.57;;;;;;;21.28;43.52;97472.84;4947475;28;20201;-75
2022/10/26 07:58:57;;;;;;;4.13;1.73;;;;;;;21.46;43.41;97464.28;4947984;28;20250;-76
2022/10/26 08:01:24;;;;;;;1.97;1.20;;;;;;;21.36;42.36;97473.91;4961877;28;20285;-75
2022/10/26 08:03:55;;;;;;;4.03;1.80;;;;;;;21.48;42.46;97466.78;4951990;28;20193;-76
2022/10/26 08:06:22;;;;;;;1.43;1.27;;;;;;;21.59;41.56;97475.50;4950334;28;20185;-76
2022/10/26 08:08:50;;;;;;;4.50;1.50;;;;;;;21.62;41.02;97474.38;4951384;28;20189;-75
2022/10/26 08:11:17;;;;;;;3.20;1.40;;;;;;;21.61;41.49;97480.63;4950863;28;20202;-76
2022/10/26 08:13:44;;;;;;;1.83;1.17;;;;;;;21.66;40.98;97481.91;4951082;28;20214;-75
2022/10/26 08:16:12;;;;;;;1.70;1.07;;;;;;;21.65;40.78;97474.97;4950996;28;20203;-76
2022/10/26 08:18:39;;;;;;;3.03;1.77;;;;;;;21.65;40.90;97477.63;4964388;28;20532;-75
2022/10/26 08:21:10;;;;;;;6.67;1.17;;;;;;;21.85;39.92;97475.97;4951122;29;20199;-74
2022/10/26 08:23:44;;;;;;;3.23;1.50;;;;;;;21.91;39.63;97472.81;4950070;28;20218;-76
2022/10/26 08:26:11;;;;;;;1.93;1.23;;;;;;;22.03;39.70;97470.97;4951169;28;20196;-76
2022/10/26 08:28:38;;;;;;;2.53;1.13;;;;;;;22.18;38.85;97473.13;4950350;28;20223;-76
2022/10/26 08:31:06;;;;;;;1.27;1.10;;;;;;;22.16;38.48;97476.84;4950789;28;20190;-78
2022/10/26 08:33:33;;;;;;;2.03;1.10;;;;;;;22.12;38.52;97472.78;4950741;28;20203;-78
2022/10/26 08:36:03;;;;;;;1.57;1.00;;;;;;;22.20;38.03;97471.19;4949762;28;20198;-77
2022/10/26 08:38:32;;;;;;;3.30;1.30;;;;;;;22.18;38.20;97473.13;4965443;28;20521;-75
2022/10/26 08:41:05;;;;;;;2.13;1.00;;;;;;;22.13;38.13;97466.56;4948375;29;20584;-75
2022/10/26 08:43:57;;;;;;;2.63;0.90;;;;;;;22.00;37.94;97458.84;4950736;28;20285;-75
2022/10/26 08:46:35;;;;;;;2.03;1.10;;;;;;;22.20;37.37;97473.81;4950637;28;20206;-77
2022/10/26 08:49:18;;;;;;;2.30;1.07;;;;;;;22.26;37.09;97472.44;4949614;28;20205;-76
2022/10/26 08:51:48;;;;;;;4.27;1.17;;;;;;;22.28;37.50;97476.63;4949444;29;20218;-76
2022/10/26 08:54:25;;;;;;;0.77;0.70;;;;;;;22.14;37.96;97479.63;4950042;28;20191;-76
2022/10/26 08:56:57;;;;;;;1.73;0.90;;;;;;;22.32;37.05;97478.03;4950431;28;20273;-75
2022/10/26 08:59:34;;;;;;;2.23;0.93;;;;;;;22.23;37.29;97486.75;4950300;28;20218;-76
2022/10/26 09:02:01;;;;;;;4.90;0.97;;;;;;;22.43;36.89;97487.69;4949598;28;20183;-76
2022/10/26 09:04:31;;;;;;;2.97;0.80;;;;;;;22.33;36.71;97473.59;4950474;28;20191;-77
2022/10/26 09:07:13;;;;;;;1.23;0.90;;;;;;;22.47;36.79;97486.44;4963663;28;20268;-77
2022/10/26 09:10:10;;;;;;;1.30;0.90;;;;;;;22.32;36.75;97480.69;4950023;28;20196;-76
2022/10/26 09:12:52;;;;;;;8.23;2.20;;;;;;;22.56;36.60;97473.31;4950093;28;20687;-76
2022/10/26 09:15:54;;;;;;;1.77;1.23;;;;;;;22.90;36.22;97478.28;4948470;28;20718;-76
2022/10/26 09:18:46;;;;;;;0.80;0.70;;;;;;;22.96;35.75;97480.38;4965379;28;20240;-76
2022/10/26 09:21:18;;;;;;;2.30;1.10;;;;;;;23.08;36.01;97480.13;4969322;28;20190;-76
2022/10/26 09:23:56;;;;;;;1.23;0.90;;;;;;;23.23;35.67;97478.78;4966809;28;20240;-76
2022/10/26 09:26:53;;;;;;;2.23;0.90;;;;;;;23.28;35.32;97481.00;4969144;28;20277;-75
2022/10/26 09:29:38;;;;;;;0.80;0.80;;;;;;;23.29;35.10;97482.66;4969790;28;20621;-74
2022/10/26 09:32:14;;;;;;;1.63;0.97;;;;;;;22.96;35.64;97486.50;4966985;28;20192;-76
2022/10/26 09:34:49;;;;;;;1.00;0.90;;;;;;;22.98;35.47;97495.13;4969257;28;20210;-78
2022/10/26 09:37:24;;;;;;;1.57;1.17;;;;;;;22.82;36.41;97483.41;4968323;28;20201;-76
2022/10/26 09:39:51;;;;;;;1.93;0.90;;;;;;;;;;4969056;28;20260;-75
2022/10/26 09:42:23;;;;;;;6.40;3.30;;;;;;;23.02;35.81;97487.78;4967071;28;20252;-77
2022/10/26 09:44:57;;;;;;;3.63;0.90;;;;;;;23.05;36.04;97484.88;4950954;28;20195;-74
2022/10/26 09:47:39;;;;;;;2.20;0.80;;;;;;;23.00;35.74;97485.25;4968666;28;20604;-76
2022/10/26 09:50:38;;;;;;;2.07;0.97;;;;;;;23.09;36.14;97475.69;4967609;28;20666;-77
2022/10/26 09:53:05;;;;;;;2.40;0.90;;;;;;;23.31;36.13;97481.56;4968704;28;20193;-79
2022/10/26 09:55:37;;;;;;;1.10;0.93;;;;;;;23.13;36.13;97482.38;4968470;28;20191;-76
2022/10/26 09:58:13;;;;;;;1.97;1.07;;;;;;;23.37;35.97;97482.84;4967744;28;20222;-77
2022/10/26 10:00:42;;;;;;;2.37;1.30;;;;;;;23.60;34.77;97463.09;4968910;28;20257;-77
2022/10/26 10:03:38;;;;;;;2.93;1.20;;;;;;;23.85;34.64;97477.53;4967612;28;20220;-76
2022/10/26 10:06:19;;;;;;;1.97;1.10;;;;;;;23.64;34.81;97475.06;4935407;28;20297;-76
2022/10/26 10:09:05;;;;;;;3.90;1.30;;;;;;;23.86;34.64;97469.50;4967032;28;20694;-77
2022/10/26 10:11:40;;;;;;;4.57;1.20;;;;;;;24.09;34.35;97470.84;4967563;28;20195;-78
2022/10/26 10:14:13;;;;;;;2.77;1.13;;;;;;;24.07;34.19;97470.16;4967032;28;20695;-76
2022/10/26 10:16:48;;;;;;;2.00;0.80;;;;;;;23.31;34.60;97454.28;4967166;28;20207;-80
2022/10/26 10:19:26;;;;;;;1.50;1.17;;;;;;;23.48;34.31;97469.50;4967958;28;20218;-73
2022/10/26 10:22:07;;;;;;;1.10;0.80;;;;;;;23.58;34.74;97465.03;4950843;28;20663;-77
2022/10/26 10:24:38;;;;;;;0.70;0.70;;;;;;;23.57;34.57;97466.03;4965884;28;20188;-77
2022/10/26 10:27:12;;;;;;;2.63;1.10;;;;;;;23.90;33.86;97455.00;4968621;28;20200;-74
2022/10/26 10:30:00;;;;;;;1.50;0.93;;;;;;;23.97;34.06;97453.44;4949870;28;20205;-78
2022/10/26 10:32:31;;;;;;;4.47;1.70;;;;;;;24.24;33.75;97460.63;4968173;28;20220;-76
2022/10/26 10:35:23;;;;;;;4.07;1.33;;;;;;;24.40;33.15;97434.38;4968203;28;20197;-78
2022/10/26 10:37:51;;;;;;;4.27;1.43;;;;;;;24.57;33.25;97446.84;4967047;28;20282;-78
2022/10/26 10:40:25;;;;;;;1.93;1.43;;;;;;;24.69;32.55;97439.56;4968394;28;20231;-76
2022/10/26 10:43:01;;;;;;;2.07;1.40;;;;;;;24.85;32.27;97445.06;4967358;28;20293;-78
2022/10/26 10:45:30;;;;;;;2.50;0.93;;;;;;;24.57;32.90;97446.00;4967547;28;20253;-76
2022/10/26 10:48:04;;;;;;;9.00;1.87;;;;;;;24.40;33.75;97444.97;4968273;28;20202;-73
2022/10/26 10:50:33;;;;;;;12.70;2.03;;;;;;;24.52;32.81;97432.38;4949470;28;20192;-73
2022/10/26 10:53:25;;;;;;;3.00;1.20;;;;;;;24.72;32.67;97441.91;4950304;28;20206;-73
2022/10/26 10:56:34;;;;;;;3.30;1.50;;;;;;;24.85;32.67;97434.47;4949916;28;20191;-76
2022/10/26 10:59:14;;;;;;;3.80;2.17;;;;;;;25.02;32.32;97425.69;4966868;28;20237;-75
2022/10/26 11:01:58;;;;;;;1.37;1.27;;;;;;;25.20;32.52;97423.06;4968153;28;20222;-77
2022/10/26 11:04:44;;;;;;;2.80;1.00;;;;;;;24.93;32.12;97422.16;4967767;28;20190;-75
2022/10/26 11:07:14;;;;;;;3.30;1.10;;;;;;;24.91;32.38;97433.88;4949709;28;20187;-79
2022/10/26 11:09:45;;;;;;;3.00;1.37;;;;;;;24.84;32.61;97427.50;4967486;28;20212;-74
2022/10/26 11:12:36;;;;;;;3.03;1.07;;;;;;;24.86;32.88;97433.47;4966483;28;20202;-74
2022/10/26 11:15:13;;;;;;;2.73;1.30;;;;;;;24.66;32.95;97429.25;4967435;28;20200;-77
2022/10/26 11:17:52;;;;;;;9.50;1.77;;;;;;;24.69;32.75;97431.63;4966931;28;20286;-78
2022/10/26 11:20:23;;;;;;;3.43;1.23;;;;;;;24.47;32.68;97429.34;4966669;28;20224;-74
2022/10/26 11:23:11;;;;;;;6.73;1.87;;;;;;;24.51;32.98;97420.13;4967610;28;20209;-74
2022/10/26 11:25:41;;;;;;;6.43;1.67;;;;;;;24.70;32.87;97427.97;4966494;28;20695;-74
2022/10/26 11:28:23;;;;;;;4.97;1.67;;;;;;;24.90;32.33;97416.28;4965607;28;20255;-76
2022/10/26 11:30:57;;;;;;;2.80;1.20;;;;;;;24.95;32.67;97419.34;4967088;28;20200;-75
2022/10/26 11:33:31;;;;;;;1.40;1.03;;;;;;;24.90;32.18;97425.09;4966551;28;20193;-78
2022/10/26 11:36:07;;;;;;;1.30;0.90;;;;;;;24.75;32.40;97434.50;4949858;28;20728;-76
2022/10/26 11:39:13;;;;;;;2.23;1.10;;;;;;;24.52;32.72;97427.09;4952321;28;20393;-78
2022/10/26 11:42:22;;;;;;;7.17;2.77;;;;;;;24.62;32.55;97423.41;4969071;28;20209;-72
2022/10/26 11:45:54;;;;;;;1.80;0.80;;;;;;;24.63;32.61;97430.38;4970299;28;20204;-76
2022/10/26 11:48:57;;;;;;;3.30;1.10;;;;;;;24.70;33.12;97425.31;4952123;28;20301;-75
2022/10/26 11:52:16;;;;;;;1.60;1.33;;;;;;;24.56;32.76;97423.16;4951463;28;20277;-77
2022/10/26 11:55:40;;;;;;;4.00;1.33;;;;;;;24.75;32.47;97417.81;4949373;29;20249;-75
2022/10/26 11:59:00;;;;;;;4.57;1.33;;;;;;;24.88;32.16;97420.91;4961563;28;20220;-74
2022/10/26 12:02:21;;;;;;;6.27;3.87;;;;;;;25.09;31.80;97418.81;4969097;28;20297;-76
2022/10/26 12:05:24;;;;;;;3.43;1.20;;;;;;;24.94;31.87;97417.66;4970183;28;20554;-76